createdAt,value
2022-08-26T00:02:12.755Z,22.02
2022-08-26T00:04:40.955Z,21.99
2022-08-26T00:07:09.454Z,21.95
2022-08-26T00:09:40.100Z,21.91
2022-08-26T00:12:12.402Z,21.86
2022-08-26T00:14:41.212Z,21.85
2022-08-26T00:17:09.679Z,21.84
2022-08-26T00:19:38.359Z,21.84
2022-08-26T00:22:06.714Z,21.88
2022-08-26T00:24:34.999Z,21.89
2022-08-26T00:27:03.378Z,21.89
2022-08-26T00:29:37.408Z,21.88
2022-08-26T00:32:06.665Z,21.86
2022-08-26T00:34:36.307Z,21.81
2022-08-26T00:37:08.934Z,21.78
2022-08-26T00:39:38.688Z,21.78
2022-08-26T00:42:07.038Z,21.75
2022-08-26T00:44:35.328Z,21.73
2022-08-26T00:47:07.963Z,21.72
2022-08-26T00:49:39.991Z,21.67
2022-08-26T00:52:13.159Z,21.64
2022-08-26T00:54:47.044Z,21.60
2022-08-26T00:57:19.958Z,21.58
2022-08-26T00:59:52.840Z,21.57
2022-08-26T01:02:21.790Z,21.57
2022-08-26T01:04:56.489Z,21.55
2022-08-26T01:07:27.397Z,21.53
2022-08-26T01:09:57.095Z,21.49
2022-08-26T01:12:28.740Z,21.47
2022-08-26T01:14:57.321Z,21.48
2022-08-26T01:17:28.549Z,21.46
2022-08-26T01:20:10.057Z,21.44
2022-08-26T01:22:47.624Z,21.43
2022-08-26T01:25:17.471Z,21.42
2022-08-26T01:27:46.577Z,21.37
2022-08-26T01:30:19.161Z,21.36
2022-08-26T01:32:47.787Z,21.32
2022-08-26T01:35:18.184Z,21.30
2022-08-26T01:37:49.913Z,21.29
2022-08-26T01:40:19.817Z,21.29
2022-08-26T01:42:49.471Z,21.24
2022-08-26T01:45:21.969Z,21.24
2022-08-26T01:47:56.776Z,21.26
2022-08-26T01:50:31.698Z,21.26
2022-08-26T01:53:06.628Z,21.27
2022-08-26T01:55:38.623Z,21.30
2022-08-26T01:58:14.132Z,21.28
2022-08-26T02:00:44.081Z,21.25
2022-08-26T02:03:19.625Z,21.24
2022-08-26T02:05:57.029Z,21.27
2022-08-26T02:08:32.081Z,21.24
2022-08-26T02:11:01.291Z,21.25
2022-08-26T02:13:30.591Z,21.24
2022-08-26T02:16:00.855Z,21.24
2022-08-26T02:18:32.867Z,21.22
2022-08-26T02:21:01.559Z,21.15
2022-08-26T02:23:30.600Z,21.08
2022-08-26T02:26:19.824Z,21.09
2022-08-26T02:29:05.169Z,21.07
2022-08-26T02:31:37.051Z,21.05
2022-08-26T02:34:31.214Z,21.04
2022-08-26T02:37:03.717Z,21.03
2022-08-26T02:39:38.928Z,21.04
2022-08-26T02:42:07.447Z,21.01
2022-08-26T02:44:36.661Z,20.93
2022-08-26T02:47:05.227Z,20.89
2022-08-26T02:49:33.377Z,20.85
2022-08-26T02:52:01.898Z,20.83
2022-08-26T02:54:30.101Z,20.82
2022-08-26T02:56:58.242Z,20.80
2022-08-26T02:59:27.073Z,20.73
2022-08-26T03:01:58.166Z,20.68
2022-08-26T03:04:26.240Z,20.67
2022-08-26T03:06:55.517Z,20.65
2022-08-26T03:09:24.525Z,20.62
2022-08-26T03:11:53.128Z,20.62
2022-08-26T03:14:23.995Z,20.60
2022-08-26T03:16:54.103Z,20.55
2022-08-26T03:19:27.516Z,20.51
2022-08-26T03:21:57.838Z,20.47
2022-08-26T03:24:31.693Z,20.49
2022-08-26T03:27:02.011Z,20.47
2022-08-26T03:29:57.881Z,20.43
2022-08-26T03:32:27.243Z,20.43
2022-08-26T03:34:57.288Z,20.41
2022-08-26T03:37:26.383Z,20.41
2022-08-26T03:39:55.343Z,20.39
2022-08-26T03:42:23.706Z,20.37
2022-08-26T03:44:51.741Z,20.35
2022-08-26T03:47:20.217Z,20.36
2022-08-26T03:49:48.399Z,20.37
2022-08-26T03:52:19.317Z,20.36
2022-08-26T03:54:50.703Z,20.34
2022-08-26T03:57:18.879Z,20.34
2022-08-26T03:59:48.848Z,20.35
2022-08-26T04:02:18.196Z,20.33
2022-08-26T04:04:46.470Z,20.29
2022-08-26T04:07:14.980Z,20.25
2022-08-26T04:09:43.555Z,20.24
2022-08-26T04:12:12.416Z,20.24
2022-08-26T04:14:42.646Z,20.26
2022-08-26T04:17:12.963Z,20.30
2022-08-26T04:19:41.213Z,20.30
2022-08-26T04:22:09.736Z,20.26
2022-08-26T04:24:39.820Z,20.26
2022-08-26T04:27:10.403Z,20.26
2022-08-26T04:29:42.207Z,20.29
2022-08-26T04:32:11.137Z,20.34
2022-08-26T04:34:40.208Z,20.38
2022-08-26T04:37:10.844Z,20.37
2022-08-26T04:39:39.123Z,20.33
2022-08-26T04:42:08.645Z,20.34
2022-08-26T04:44:40.152Z,20.33
2022-08-26T04:47:13.913Z,20.36
2022-08-26T04:49:44.431Z,20.40
2022-08-26T04:52:12.793Z,20.42
2022-08-26T04:54:41.952Z,20.45
2022-08-26T04:57:10.391Z,20.50
2022-08-26T04:59:39.578Z,20.56
2022-08-26T05:02:09.425Z,20.63
2022-08-26T05:04:38.277Z,20.68
2022-08-26T05:07:10.857Z,20.73
2022-08-26T05:09:39.988Z,20.78
2022-08-26T05:12:13.203Z,20.84
2022-08-26T05:14:41.726Z,20.89
2022-08-26T05:17:14.814Z,20.94
2022-08-26T05:19:51.687Z,20.98
2022-08-26T05:22:25.744Z,21.03
2022-08-26T05:25:01.254Z,21.09
2022-08-26T05:28:04.250Z,21.17
2022-08-26T05:30:40.346Z,21.23
2022-08-26T05:39:12.569Z,21.46
2022-08-26T05:45:00.998Z,21.64
2022-08-26T05:47:36.014Z,21.70
2022-08-26T05:50:19.111Z,21.80
2022-08-26T05:53:00.829Z,21.93
2022-08-26T05:56:17.013Z,22.02
2022-08-26T05:59:37.904Z,22.18
2022-08-26T06:02:56.031Z,22.22
2022-08-26T06:05:24.543Z,22.36
2022-08-26T06:08:19.376Z,22.45
2022-08-26T06:10:50.968Z,22.57
2022-08-26T06:13:35.195Z,22.63
2022-08-26T06:16:08.864Z,22.65
2022-08-26T06:29:46.629Z,23.02
2022-08-26T06:32:29.140Z,23.10
2022-08-26T06:34:57.789Z,23.17
2022-08-26T06:37:28.823Z,23.27
2022-08-26T06:39:58.358Z,23.40
2022-08-26T06:42:26.472Z,23.40
2022-08-26T06:44:54.706Z,23.36
2022-08-26T06:47:22.654Z,23.38
2022-08-26T06:49:51.112Z,23.40
2022-08-26T06:52:23.097Z,23.42
2022-08-26T06:54:53.021Z,23.56
2022-08-26T06:57:21.201Z,23.71
2022-08-26T06:59:51.121Z,23.89
2022-08-26T07:02:20.839Z,24.00
2022-08-26T07:04:51.207Z,24.15
2022-08-26T07:07:19.429Z,24.28
2022-08-26T07:09:52.647Z,24.43
2022-08-26T07:12:21.656Z,24.58
2022-08-26T07:14:50.327Z,24.71
2022-08-26T07:17:19.339Z,24.80
2022-08-26T07:19:49.160Z,24.93
2022-08-26T07:22:19.063Z,25.09
2022-08-26T07:24:46.966Z,25.23
2022-08-26T07:27:16.694Z,25.34
2022-08-26T07:29:45.874Z,25.43
2022-08-26T07:32:15.343Z,25.54
2022-08-26T07:34:43.844Z,25.64
2022-08-26T07:37:12.240Z,25.74
2022-08-26T07:39:41.759Z,25.81
2022-08-26T07:42:15.470Z,25.88
2022-08-26T07:44:44.297Z,25.96
2022-08-26T07:47:25.808Z,26.07
2022-08-26T07:49:57.497Z,26.17
2022-08-26T07:52:27.601Z,26.31
2022-08-26T07:55:00.758Z,26.47
2022-08-26T07:57:30.440Z,26.60
2022-08-26T07:59:59.167Z,26.76
2022-08-26T08:02:28.844Z,26.94
2022-08-26T08:04:58.008Z,27.12
2022-08-26T08:07:45.092Z,27.22
2022-08-26T08:10:21.702Z,27.33
2022-08-26T08:12:55.422Z,27.46
2022-08-26T08:15:27.881Z,27.57
2022-08-26T08:18:00.204Z,27.67
2022-08-26T08:20:30.097Z,27.77
2022-08-26T08:22:58.040Z,27.87
2022-08-26T08:25:26.230Z,27.94
2022-08-26T08:27:54.154Z,27.98
2022-08-26T08:30:23.272Z,28.09
2022-08-26T08:32:52.399Z,28.16
2022-08-26T08:35:22.661Z,28.26
2022-08-26T08:37:54.267Z,28.33
2022-08-26T08:40:25.363Z,28.44
2022-08-26T08:42:59.295Z,28.56
2022-08-26T08:45:30.475Z,28.68
2022-08-26T08:48:11.718Z,28.72
2022-08-26T08:50:45.747Z,28.76
2022-08-26T08:53:19.378Z,28.85
2022-08-26T08:55:50.190Z,28.90
2022-08-26T08:58:21.670Z,28.93
2022-08-26T09:00:54.767Z,28.98
2022-08-26T09:04:01.530Z,29.06
2022-08-26T09:06:29.691Z,29.16
2022-08-26T09:08:58.391Z,29.16
2022-08-26T09:11:26.367Z,29.24
2022-08-26T09:13:56.208Z,29.31
2022-08-26T09:16:36.515Z,29.43
2022-08-26T09:19:19.309Z,29.51
2022-08-26T09:21:58.812Z,29.65
2022-08-26T09:24:30.282Z,29.80
2022-08-26T09:26:59.153Z,29.93
2022-08-26T09:29:34.045Z,30.04
2022-08-26T09:32:37.579Z,30.17
2022-08-26T09:35:23.766Z,30.32
2022-08-26T09:37:53.162Z,30.39
2022-08-26T09:40:28.400Z,30.41
2022-08-26T09:43:22.237Z,30.45
2022-08-26T09:45:59.458Z,30.56
2022-08-26T09:48:36.191Z,30.64
2022-08-26T09:51:24.421Z,30.80
2022-08-26T09:53:55.365Z,30.98
2022-08-26T09:56:23.531Z,31.17
2022-08-26T09:58:51.910Z,31.29
2022-08-26T10:01:46.399Z,31.42
2022-08-26T10:04:22.150Z,31.63
2022-08-26T10:06:59.750Z,31.80
2022-08-26T10:09:29.878Z,31.91
2022-08-26T10:12:05.846Z,32.08
2022-08-26T10:14:48.465Z,32.20
2022-08-26T10:17:26.781Z,32.28
2022-08-26T10:20:02.817Z,32.41
2022-08-26T10:22:43.609Z,32.52
2022-08-26T10:25:16.034Z,32.61
2022-08-26T10:28:12.974Z,32.73
2022-08-26T10:30:45.841Z,32.89
2022-08-26T10:33:15.500Z,33.01
2022-08-26T10:35:53.285Z,33.10
2022-08-26T10:38:29.550Z,33.18
2022-08-26T10:40:57.439Z,33.24
2022-08-26T10:43:34.678Z,33.37
2022-08-26T10:46:10.258Z,33.49
2022-08-26T10:48:59.806Z,33.53
2022-08-26T10:51:35.646Z,33.53
2022-08-26T10:54:14.209Z,33.58
2022-08-26T10:57:16.550Z,33.67
2022-08-26T11:00:38.330Z,33.83
2022-08-26T11:03:21.696Z,33.99
2022-08-26T11:06:19.552Z,34.06
2022-08-26T11:08:59.668Z,33.99
2022-08-26T11:11:39.625Z,34.10
2022-08-26T11:14:28.398Z,34.27
2022-08-26T11:16:59.090Z,34.33
2022-08-26T11:19:50.537Z,34.41
2022-08-26T11:22:36.254Z,34.54
2022-08-26T11:25:12.963Z,34.70
2022-08-26T11:27:41.694Z,34.79
2022-08-26T11:30:12.658Z,34.76
2022-08-26T11:32:41.526Z,34.81
2022-08-26T11:35:12.542Z,34.80
2022-08-26T11:37:41.229Z,34.83
2022-08-26T11:40:13.433Z,34.83
2022-08-26T11:42:44.966Z,34.88
2022-08-26T11:45:26.902Z,34.86
2022-08-26T11:47:55.003Z,34.78
2022-08-26T11:50:26.169Z,34.82
2022-08-26T11:53:04.303Z,34.94
2022-08-26T11:55:36.538Z,35.00
2022-08-26T11:58:05.857Z,35.09
2022-08-26T12:00:45.752Z,35.22
2022-08-26T12:03:19.926Z,35.31
2022-08-26T12:05:49.440Z,35.39
2022-08-26T12:08:22.124Z,35.37
2022-08-26T12:11:02.554Z,35.32
2022-08-26T12:13:30.556Z,35.36
2022-08-26T12:16:00.318Z,35.41
2022-08-26T12:18:36.977Z,35.50
2022-08-26T12:21:22.197Z,35.53
2022-08-26T12:23:56.259Z,35.49
2022-08-26T12:26:34.062Z,35.50
2022-08-26T12:29:19.711Z,35.51
2022-08-26T12:31:48.816Z,35.62
2022-08-26T12:34:18.517Z,35.77
2022-08-26T12:36:53.907Z,35.76
2022-08-26T12:39:45.246Z,35.77
2022-08-26T12:42:13.064Z,35.78
2022-08-26T12:44:53.905Z,35.84
2022-08-26T12:47:32.686Z,35.93
2022-08-26T12:50:18.425Z,35.95
2022-08-26T12:53:10.627Z,36.03
2022-08-26T12:55:43.831Z,36.10
2022-08-26T12:58:26.175Z,36.20
2022-08-26T13:01:14.578Z,36.25
2022-08-26T13:03:45.277Z,36.45
2022-08-26T13:06:15.902Z,36.56
2022-08-26T13:08:44.281Z,36.61
2022-08-26T13:11:22.551Z,36.68
2022-08-26T13:13:53.499Z,36.60
2022-08-26T13:16:22.330Z,36.55
2022-08-26T13:18:53.671Z,36.55
2022-08-26T13:21:37.569Z,36.66
2022-08-26T13:24:11.678Z,36.72
2022-08-26T13:26:40.734Z,36.83
2022-08-26T13:29:10.617Z,37.07
2022-08-26T13:31:40.457Z,37.25
2022-08-26T13:34:12.027Z,37.31
2022-08-26T13:36:40.298Z,37.34
2022-08-26T13:39:08.203Z,37.41
2022-08-26T13:41:36.759Z,37.46
2022-08-26T13:44:06.983Z,37.58
2022-08-26T13:46:35.046Z,37.79
2022-08-26T13:49:03.917Z,38.01
2022-08-26T13:51:32.395Z,38.32
2022-08-26T13:54:01.144Z,38.64
2022-08-26T13:56:30.156Z,38.75
2022-08-26T13:58:59.770Z,38.86
2022-08-26T14:01:30.105Z,39.08
2022-08-26T14:03:58.875Z,39.29
2022-08-26T14:06:26.830Z,39.47
2022-08-26T14:08:54.749Z,39.71
2022-08-26T14:11:25.045Z,39.98
2022-08-26T14:13:53.179Z,40.20
2022-08-26T14:16:34.679Z,40.36
2022-08-26T14:19:05.022Z,40.59
2022-08-26T14:21:36.799Z,40.84
2022-08-26T14:24:06.342Z,41.12
2022-08-26T14:26:34.598Z,41.47
2022-08-26T14:29:05.912Z,41.76
2022-08-26T14:31:35.599Z,41.92
2022-08-26T14:34:06.292Z,42.08
2022-08-26T14:36:35.239Z,42.15
2022-08-26T14:39:09.261Z,42.35
2022-08-26T14:41:45.616Z,42.60
2022-08-26T14:44:25.257Z,42.83
2022-08-26T14:46:54.452Z,43.04
2022-08-26T14:49:24.393Z,43.22
2022-08-26T14:51:52.354Z,43.45
2022-08-26T14:54:21.298Z,43.69
2022-08-26T14:57:05.122Z,43.83
2022-08-26T14:59:38.352Z,44.09
2022-08-26T15:02:08.068Z,44.33
2022-08-26T15:04:37.267Z,44.53
2022-08-26T15:07:05.347Z,44.86
2022-08-26T15:09:36.353Z,45.07
2022-08-26T15:12:05.667Z,45.33
2022-08-26T15:14:33.749Z,45.59
2022-08-26T15:17:02.029Z,45.78
2022-08-26T15:19:30.118Z,45.76
2022-08-26T15:22:04.940Z,45.82
2022-08-26T15:24:33.151Z,45.91
2022-08-26T15:27:02.204Z,46.21
2022-08-26T15:29:30.467Z,46.31
2022-08-26T15:32:05.428Z,46.19
2022-08-26T15:34:33.726Z,46.24
2022-08-26T15:37:02.302Z,46.35
2022-08-26T15:39:30.474Z,46.35
2022-08-26T15:42:00.029Z,46.41
2022-08-26T15:44:28.722Z,46.56
2022-08-26T15:46:58.781Z,46.79
2022-08-26T15:49:27.595Z,47.03
2022-08-26T15:51:55.657Z,47.03
2022-08-26T15:54:24.521Z,46.88
2022-08-26T15:56:53.262Z,46.95
2022-08-26T15:59:22.285Z,47.17
2022-08-26T16:01:51.797Z,47.23
2022-08-26T16:04:21.486Z,47.07
2022-08-26T16:06:51.615Z,46.96
2022-08-26T16:09:23.912Z,47.01
2022-08-26T16:11:57.419Z,47.05
2022-08-26T16:14:32.882Z,46.84
2022-08-26T16:17:01.282Z,46.72
2022-08-26T16:19:29.738Z,46.59
2022-08-26T16:21:57.959Z,46.36
2022-08-26T16:24:30.241Z,46.06
2022-08-26T16:26:58.824Z,45.90
2022-08-26T16:29:27.321Z,45.78
2022-08-26T16:31:55.279Z,45.53
2022-08-26T16:34:24.733Z,45.26
2022-08-26T16:36:53.237Z,45.11
2022-08-26T16:39:21.284Z,45.01
2022-08-26T16:41:49.314Z,44.96
2022-08-26T16:44:17.439Z,44.70
2022-08-26T16:46:45.802Z,44.50
2022-08-26T16:49:16.916Z,44.16
2022-08-26T16:51:45.589Z,43.69
2022-08-26T16:54:13.767Z,43.22
2022-08-26T16:56:41.682Z,42.81
2022-08-26T16:59:11.577Z,42.28
2022-08-26T17:01:39.877Z,41.33
2022-08-26T17:04:08.252Z,39.95
2022-08-26T17:06:36.855Z,38.76
2022-08-26T17:09:05.206Z,37.75
2022-08-26T17:11:33.842Z,36.80
2022-08-26T17:14:01.865Z,35.94
2022-08-26T17:16:30.174Z,35.17
2022-08-26T17:18:59.032Z,34.46
2022-08-26T17:21:28.414Z,33.81
2022-08-26T17:23:57.573Z,33.17
2022-08-26T17:26:26.921Z,32.62
2022-08-26T17:28:55.437Z,32.14
2022-08-26T17:31:25.374Z,31.72
2022-08-26T17:33:55.556Z,31.34
2022-08-26T17:36:28.015Z,31.01
2022-08-26T17:38:58.633Z,30.69
2022-08-26T17:41:27.131Z,30.39
2022-08-26T17:43:55.390Z,30.07
2022-08-26T17:46:24.634Z,29.78
2022-08-26T17:48:52.837Z,29.47
2022-08-26T17:51:23.014Z,29.14
2022-08-26T17:53:52.011Z,28.78
2022-08-26T17:56:24.200Z,28.52
2022-08-26T17:59:02.487Z,28.30
2022-08-26T18:01:32.773Z,28.08
2022-08-26T18:04:01.675Z,27.88
2022-08-26T18:06:30.836Z,27.67
2022-08-26T18:09:00.707Z,27.50
2022-08-26T18:11:32.145Z,27.35
2022-08-26T18:14:00.463Z,27.20
2022-08-26T18:16:31.853Z,27.05
2022-08-26T18:19:01.323Z,26.92
2022-08-26T18:21:29.332Z,26.79
2022-08-26T18:23:58.309Z,26.68
2022-08-26T18:26:34.505Z,26.54
2022-08-26T18:29:03.376Z,26.41
2022-08-26T18:31:31.553Z,26.30
2022-08-26T18:34:01.372Z,26.21
2022-08-26T18:36:32.699Z,26.10
2022-08-26T18:39:02.601Z,26.00
2022-08-26T18:41:32.707Z,25.93
2022-08-26T18:44:00.741Z,25.85
2022-08-26T18:46:28.804Z,25.76
2022-08-26T18:48:58.483Z,25.69
2022-08-26T18:51:32.914Z,25.64
2022-08-26T18:54:03.359Z,25.59
2022-08-26T18:56:32.239Z,25.54
2022-08-26T18:59:00.424Z,25.47
2022-08-26T19:01:30.128Z,25.43
2022-08-26T19:04:02.494Z,25.43
2022-08-26T19:06:33.723Z,25.46
2022-08-26T19:09:03.891Z,25.48
2022-08-26T19:11:42.316Z,25.46
2022-08-26T19:14:13.865Z,25.40
2022-08-26T19:16:45.930Z,25.35
2022-08-26T19:19:14.939Z,25.27
2022-08-26T19:21:43.135Z,25.16
2022-08-26T19:24:15.599Z,25.07
2022-08-26T19:26:45.956Z,24.99
2022-08-26T19:29:15.730Z,24.95
2022-08-26T19:31:44.173Z,24.90
2022-08-26T19:34:18.308Z,24.86
2022-08-26T19:36:49.644Z,24.77
2022-08-26T19:39:17.682Z,24.66
2022-08-26T19:41:45.589Z,24.57
2022-08-26T19:44:39.393Z,24.51
2022-08-26T19:47:09.801Z,24.42
2022-08-26T19:49:38.260Z,24.35
2022-08-26T19:52:06.351Z,24.28
2022-08-26T19:54:36.199Z,24.21
2022-08-26T19:57:04.950Z,24.13
2022-08-26T19:59:33.770Z,24.01
2022-08-26T20:02:05.059Z,23.90
2022-08-26T20:04:36.120Z,23.79
2022-08-26T20:07:05.337Z,23.69
2022-08-26T20:09:34.226Z,23.62
2022-08-26T20:12:04.372Z,23.57
2022-08-26T20:14:33.921Z,23.58
2022-08-26T20:17:04.759Z,23.62
2022-08-26T20:19:53.728Z,23.66
2022-08-26T20:22:23.438Z,23.70
2022-08-26T20:24:52.172Z,23.69
2022-08-26T20:27:22.278Z,23.67
2022-08-26T20:29:50.193Z,23.65
2022-08-26T20:32:19.619Z,23.63
2022-08-26T20:34:47.781Z,23.60
2022-08-26T20:37:16.683Z,23.57
2022-08-26T20:39:49.409Z,23.54
2022-08-26T20:42:20.009Z,23.49
2022-08-26T20:44:54.494Z,23.40
2022-08-26T20:47:23.278Z,23.18
2022-08-26T20:49:52.640Z,23.04
2022-08-26T20:52:20.922Z,22.99
2022-08-26T20:54:48.912Z,22.98
2022-08-26T20:57:16.917Z,22.99
2022-08-26T20:59:45.016Z,23.03
2022-08-26T21:02:12.921Z,23.08
2022-08-26T21:04:40.859Z,23.10
2022-08-26T21:07:08.822Z,23.08
2022-08-26T21:09:36.772Z,23.01
2022-08-26T21:12:06.705Z,22.94
2022-08-26T21:14:34.702Z,22.88
2022-08-26T21:17:02.683Z,22.84
2022-08-26T21:19:30.720Z,22.80
2022-08-26T21:21:59.611Z,22.79
2022-08-26T21:24:27.613Z,22.80
2022-08-26T21:26:55.598Z,22.80
2022-08-26T21:29:23.576Z,22.76
2022-08-26T21:31:51.579Z,22.70
2022-08-26T21:34:20.280Z,22.63
2022-08-26T21:36:48.897Z,22.47
2022-08-26T21:39:16.909Z,22.34
2022-08-26T21:41:45.742Z,22.28
2022-08-26T21:44:14.884Z,22.23
2022-08-26T21:46:44.395Z,22.22
2022-08-26T21:49:15.615Z,22.19
2022-08-26T21:51:45.977Z,22.15
2022-08-26T21:54:15.629Z,22.07
2022-08-26T21:56:46.583Z,21.99
2022-08-26T21:59:18.431Z,21.88
2022-08-26T22:01:47.082Z,21.74
2022-08-26T22:04:15.662Z,21.73
2022-08-26T22:06:54.947Z,21.76
2022-08-26T22:09:25.510Z,21.79
2022-08-26T22:11:56.819Z,21.78
2022-08-26T22:14:30.900Z,21.79
2022-08-26T22:16:59.959Z,21.79
2022-08-26T22:19:28.086Z,21.80
2022-08-26T22:21:56.108Z,21.74
2022-08-26T22:24:25.805Z,21.75
2022-08-26T22:26:54.601Z,21.82
2022-08-26T22:29:24.397Z,21.83
2022-08-26T22:31:52.925Z,21.84
2022-08-26T22:34:23.101Z,21.82
2022-08-26T22:36:51.401Z,21.83
2022-08-26T22:39:22.389Z,21.82
2022-08-26T22:41:52.106Z,21.80
2022-08-26T22:44:22.105Z,21.76
2022-08-26T22:46:54.373Z,21.75
2022-08-26T22:49:23.302Z,21.72
2022-08-26T22:51:51.244Z,21.62
2022-08-26T22:54:19.602Z,21.50
2022-08-26T22:56:47.543Z,21.37
2022-08-26T22:59:16.265Z,21.29
2022-08-26T23:01:44.729Z,21.25
2022-08-26T23:04:12.660Z,21.24
2022-08-26T23:06:43.355Z,21.18
2022-08-26T23:09:18.206Z,21.15
2022-08-26T23:11:48.368Z,21.10
2022-08-26T23:14:17.654Z,21.07
2022-08-26T23:16:45.815Z,21.03
2022-08-26T23:19:15.546Z,20.98
2022-08-26T23:21:43.767Z,20.93
2022-08-26T23:24:12.098Z,20.87
2022-08-26T23:26:41.634Z,20.82
2022-08-26T23:29:11.575Z,20.77
2022-08-26T23:31:41.283Z,20.70
2022-08-26T23:34:27.771Z,20.64
2022-08-26T23:36:59.061Z,20.65
2022-08-26T23:39:28.566Z,20.66
2022-08-26T23:44:50.118Z,20.60
2022-08-26T23:47:18.059Z,20.62
2022-08-26T23:49:45.954Z,20.64
2022-08-26T23:52:32.854Z,20.63
2022-08-26T23:55:00.759Z,20.60
2022-08-26T23:57:29.712Z,20.55
2022-08-26T23:59:57.936Z,20.54
